Time;durP1;ratioP1;P1;durP2;ratioP2;P2;SDS_P1;SDS_P2;PMS_P1;PMS_P2;Temp;Humidity;BMP_temperature;BMP_pressure;BME280_temperature;BME280_humidity;BME280_pressure;Samples;Min_cycle;Max_cycle;Signal;HPM_P1;HPM_P2
2021/11/25 00:02:00;;;;;;;36.10;24.77;;;4.60;98.80;;;;;;5124963;28;20046;-87
2021/11/25 00:04:26;;;;;;;38.27;25.70;;;4.60;98.80;;;;;;5123961;28;20028;-80
2021/11/25 00:07:00;;;;;;;44.53;30.30;;;4.50;98.80;;;;;;5106790;28;20050;-86
2021/11/25 00:09:26;;;;;;;36.70;24.20;;;4.60;99.20;;;;;;5123130;28;20036;-83
2021/11/25 00:11:52;;;;;;;38.40;25.40;;;4.60;99.20;;;;;;5124689;28;20518;-85
2021/11/25 00:14:19;;;;;;;33.20;23.77;;;4.50;99.10;;;;;;5106131;28;20027;-83
2021/11/25 00:16:46;;;;;;;25.07;18.30;;;4.50;99.10;;;;;;5107225;28;20103;-86
2021/11/25 00:19:15;;;;;;;32.60;23.23;;;4.40;99.00;;;;;;5123230;28;20027;-88
2021/11/25 00:21:42;;;;;;;36.53;25.17;;;4.30;98.90;;;;;;5106605;28;20067;-87
2021/11/25 00:24:08;;;;;;;39.27;25.17;;;4.30;99.20;;;;;;5107156;28;20039;-87
2021/11/25 00:26:35;;;;;;;25.93;19.03;;;4.40;99.30;;;;;;5124898;28;20058;-84
2021/11/25 00:29:02;;;;;;;24.30;19.13;;;4.30;99.00;;;;;;5105107;28;20027;-87
2021/11/25 00:31:27;;;;;;;32.60;23.00;;;4.20;98.70;;;;;;5124195;28;20095;-80
2021/11/25 00:33:53;;;;;;;24.13;18.73;;;4.20;98.70;;;;;;5122078;28;20047;-85
2021/11/25 00:36:19;;;;;;;27.57;19.37;;;4.10;98.60;;;;;;5105256;28;20052;-84
2021/11/25 00:38:46;;;;;;;28.33;20.53;;;4.00;98.40;;;;;;5105856;28;20046;-88
2021/11/25 00:41:12;;;;;;;30.27;22.13;;;3.90;98.60;;;;;;5123765;28;20028;-86
2021/11/25 00:43:39;;;;;;;28.90;21.60;;;3.90;98.70;;;;;;5122962;28;20045;-85
2021/11/25 00:46:05;;;;;;;32.63;22.10;;;3.90;98.80;;;;;;5120301;28;20019;-85
2021/11/25 00:48:31;;;;;;;29.83;21.13;;;3.80;99.00;;;;;;5086607;28;20118;-80
2021/11/25 00:50:56;;;;;;;36.97;23.40;;;3.80;99.00;;;;;;5120607;28;20391;-86
2021/11/25 00:53:22;;;;;;;32.87;24.63;;;3.70;99.20;;;;;;5103437;28;20126;-86
2021/11/25 00:55:48;;;;;;;30.30;23.07;;;3.80;99.60;;;;;;5120776;28;20098;-86
2021/11/25 00:58:15;;;;;;;29.33;20.80;;;3.90;99.60;;;;;;5121757;28;20107;-87
2021/11/25 01:00:41;;;;;;;33.67;24.77;;;3.90;99.60;;;;;;5124871;28;20016;-86
2021/11/25 01:03:08;;;;;;;36.77;24.70;;;3.90;99.80;;;;;;5112746;28;20028;-86
2021/11/25 01:05:34;;;;;;;33.20;23.80;;;4.00;99.90;;;;;;5130142;28;20061;-80
2021/11/25 01:08:00;;;;;;;31.23;23.07;;;4.10;99.90;;;;;;5112314;28;20040;-86
2021/11/25 01:10:25;;;;;;;28.77;20.60;;;4.20;99.90;;;;;;5132421;28;20041;-86
2021/11/25 01:12:53;;;;;;;29.60;21.73;;;4.20;99.90;;;;;;5126991;28;20436;-86
2021/11/25 01:15:29;;;;;;;29.60;21.93;;;4.30;99.90;;;;;;5123856;28;20448;-87
2021/11/25 01:18:00;;;;;;;29.43;19.97;;;4.20;99.80;;;;;;5124609;28;20027;-86
2021/11/25 01:20:26;;;;;;;31.83;22.77;;;4.20;99.70;;;;;;5108587;28;20028;-86
2021/11/25 01:22:51;;;;;;;27.83;20.30;;;4.20;99.90;;;;;;5125030;28;20047;-85
2021/11/25 01:25:17;;;;;;;28.00;20.80;;;4.30;99.90;;;;;;5125259;28;20024;-86
2021/11/25 01:27:43;;;;;;;29.20;21.77;;;4.30;99.80;;;;;;5126107;28;20027;-87
2021/11/25 01:30:11;;;;;;;27.37;21.83;;;4.30;99.80;;;;;;5125413;28;20027;-87
2021/11/25 01:32:38;;;;;;;29.33;20.70;;;4.40;99.90;;;;;;5125098;28;20043;-86
2021/11/25 01:35:05;;;;;;;26.20;19.70;;;4.50;99.90;;;;;;5126216;28;20024;-87
2021/11/25 01:37:30;;;;;;;25.67;20.33;;;4.50;99.90;;;;;;5123955;28;20062;-83
2021/11/25 01:39:57;;;;;;;27.03;19.87;;;4.50;99.80;;;;;;5108547;28;20106;-85
2021/11/25 01:42:23;;;;;;;24.97;18.73;;;4.50;99.80;;;;;;5091559;28;20028;-86
2021/11/25 01:44:49;;;;;;;28.67;20.70;;;4.40;99.60;;;;;;5126165;28;20023;-85
2021/11/25 01:47:15;;;;;;;28.43;19.70;;;4.40;99.50;;;;;;5124796;28;20028;-86
2021/11/25 01:49:41;;;;;;;26.33;19.40;;;4.50;99.80;;;;;;5107675;28;20031;-85
2021/11/25 01:52:07;;;;;;;22.97;19.10;;;4.50;99.70;;;;;;5124480;28;20027;-87
2021/11/25 01:54:33;;;;;;;28.90;20.80;;;4.50;99.80;;;;;;5107594;28;20031;-86
2021/11/25 01:56:58;;;;;;;26.67;21.10;;;4.50;99.40;;;;;;5124522;28;20034;-85
2021/11/25 01:59:26;;;;;;;25.33;18.93;;;4.60;99.60;;;;;;5107931;28;20032;-83
2021/11/25 02:01:55;;;;;;;27.00;18.47;;;4.60;99.40;;;;;;5125572;28;20024;-87
2021/11/25 02:04:23;;;;;;;27.50;19.57;;;4.70;99.30;;;;;;5125481;28;20036;-85
2021/11/25 02:06:49;;;;;;;26.07;19.13;;;4.60;98.90;;;;;;5126857;28;20057;-86
2021/11/25 02:09:15;;;;;;;23.87;18.27;;;4.50;98.80;;;;;;5108347;28;20040;-86
2021/11/25 02:11:41;;;;;;;24.77;18.20;;;4.30;98.20;;;;;;5125713;28;20069;-84
2021/11/25 02:14:07;;;;;;;25.87;19.23;;;4.10;97.90;;;;;;5125338;28;20027;-86
2021/11/25 02:16:34;;;;;;;29.17;19.03;;;4.00;98.10;;;;;;5125483;28;20613;-87
2021/11/25 02:19:00;;;;;;;24.90;18.90;;;3.90;98.50;;;;;;5107914;28;20031;-87
2021/11/25 02:21:28;;;;;;;25.03;19.30;;;3.90;99.00;;;;;;5107429;28;20028;-89
2021/11/25 02:23:54;;;;;;;26.97;19.03;;;3.90;99.00;;;;;;5125341;28;20024;-86
2021/11/25 02:26:21;;;;;;;25.30;18.57;;;3.80;99.00;;;;;;5125692;28;20069;-85
2021/11/25 02:28:49;;;;;;;29.63;20.23;;;3.70;99.10;;;;;;5091247;28;20054;-85
2021/11/25 02:31:16;;;;;;;27.93;20.90;;;3.70;99.30;;;;;;5125993;28;20032;-85
2021/11/25 02:33:42;;;;;;;30.63;22.23;;;3.60;99.40;;;;;;5124927;28;20028;-83
2021/11/25 02:36:08;;;;;;;27.17;20.97;;;3.70;99.80;;;;;;5125014;28;20042;-85
2021/11/25 02:38:35;;;;;;;29.23;20.73;;;3.70;99.90;;;;;;5125159;28;20028;-85
2021/11/25 02:41:01;;;;;;;26.97;20.53;;;3.60;99.50;;;;;;5125879;28;20090;-86
2021/11/25 02:43:29;;;;;;;29.67;22.10;;;3.60;99.90;;;;;;5125861;28;20026;-86
2021/11/25 02:45:58;;;;;;;28.63;21.40;;;3.60;99.90;;;;;;5125421;28;20031;-86
2021/11/25 02:48:26;;;;;;;27.47;20.10;;;3.60;99.90;;;;;;5127211;28;20036;-87
2021/11/25 02:50:54;;;;;;;29.07;19.97;;;3.60;99.90;;;;;;5127183;28;20027;-86
2021/11/25 02:53:22;;;;;;;26.07;20.87;;;3.40;99.60;;;;;;5127567;28;20023;-85
2021/11/25 02:55:48;;;;;;;30.27;22.27;;;3.20;99.70;;;;;;5128430;28;20069;-82
2021/11/25 02:58:15;;;;;;;33.60;21.63;;;3.20;99.90;;;;;;5116071;28;20052;-86
2021/11/25 03:00:45;;;;;;;30.23;21.77;;;3.30;99.90;;;;;;5115028;28;20129;-80
2021/11/25 03:03:13;;;;;;;28.13;20.60;;;3.20;99.90;;;;;;5130645;28;20028;-87
2021/11/25 03:05:41;;;;;;;27.07;19.43;;;3.30;99.90;;;;;;5126132;28;20032;-86
2021/11/25 03:08:08;;;;;;;26.00;19.23;;;3.20;99.90;;;;;;5125770;28;20111;-86
2021/11/25 03:10:36;;;;;;;28.90;21.30;;;3.10;99.90;;;;;;5125841;28;20028;-87
2021/11/25 03:13:02;;;;;;;29.37;21.87;;;3.10;99.90;;;;;;5127587;28;20026;-83
2021/11/25 03:15:32;;;;;;;29.37;20.80;;;3.20;99.90;;;;;;5112256;28;20032;-86
2021/11/25 03:18:00;;;;;;;30.73;22.23;;;3.20;99.90;;;;;;5129515;28;20027;-86
2021/11/25 03:20:27;;;;;;;28.50;20.67;;;3.20;99.90;;;;;;5109272;28;20059;-86
2021/11/25 03:22:53;;;;;;;29.07;21.87;;;3.20;99.90;;;;;;5126030;28;20051;-82
2021/11/25 03:25:22;;;;;;;28.27;21.47;;;3.20;99.90;;;;;;5096173;28;20032;-85
2021/11/25 03:27:48;;;;;;;33.20;23.27;;;3.20;99.90;;;;;;5127775;28;20035;-83
2021/11/25 03:30:14;;;;;;;30.57;22.77;;;3.20;99.90;;;;;;5093396;28;20024;-84
2021/11/25 03:32:39;;;;;;;33.77;22.80;;;3.20;99.90;;;;;;5109210;28;20046;-84
2021/11/25 03:35:07;;;;;;;32.50;21.97;;;3.30;99.90;;;;;;5107531;28;20027;-86
2021/11/25 03:37:33;;;;;;;32.00;22.77;;;3.30;99.90;;;;;;5126111;28;20036;-85
2021/11/25 03:39:59;;;;;;;26.83;20.77;;;3.30;99.90;;;;;;5109438;28;20091;-84
2021/11/25 03:42:24;;;;;;;30.30;20.40;;;3.30;99.90;;;;;;5127303;28;20045;-84
2021/11/25 03:44:51;;;;;;;28.10;19.63;;;3.30;99.90;;;;;;5126023;28;20032;-82
2021/11/25 03:47:17;;;;;;;29.00;20.03;;;3.20;99.90;;;;;;5124728;28;20024;-84
2021/11/25 03:49:43;;;;;;;26.83;21.00;;;3.00;99.90;;;;;;5105809;28;20031;-83
2021/11/25 03:52:09;;;;;;;30.60;22.97;;;3.10;99.90;;;;;;5122579;28;20018;-81
2021/11/25 03:54:34;;;;;;;26.10;19.90;;;3.10;99.90;;;;;;5122761;28;20102;-84
2021/11/25 03:57:00;;;;;;;26.10;20.07;;;3.10;99.90;;;;;;5088182;28;20428;-85
2021/11/25 03:59:26;;;;;;;26.90;19.70;;;3.00;99.90;;;;;;5125428;28;20047;-82
2021/11/25 04:01:52;;;;;;;25.40;19.57;;;2.90;99.90;;;;;;5132185;28;20035;-81
2021/11/25 04:04:17;;;;;;;29.47;21.77;;;2.80;99.90;;;;;;5115866;28;20024;-83
2021/11/25 04:06:43;;;;;;;28.17;21.13;;;2.90;99.90;;;;;;5132945;28;20027;-81
2021/11/25 04:09:09;;;;;;;30.67;21.33;;;2.90;99.90;;;;;;5117061;28;20050;-83
2021/11/25 04:11:34;;;;;;;27.67;20.37;;;3.00;99.90;;;;;;5131512;28;20035;-82
2021/11/25 04:14:03;;;;;;;28.83;21.37;;;3.10;99.90;;;;;;5089043;28;20024;-85
2021/11/25 04:16:32;;;;;;;30.73;22.57;;;3.20;99.90;;;;;;5105763;28;20047;-84
2021/11/25 04:18:58;;;;;;;29.70;20.50;;;3.30;99.90;;;;;;5105777;28;20038;-83
2021/11/25 04:21:25;;;;;;;28.27;19.10;;;3.40;99.90;;;;;;5123383;28;20028;-83
2021/11/25 04:23:51;;;;;;;32.87;20.37;;;3.40;99.90;;;;;;5106394;28;20105;-77
2021/11/25 04:26:18;;;;;;;28.13;18.70;;;3.40;99.90;;;;;;5122839;28;20031;-84
2021/11/25 04:28:43;;;;;;;25.97;19.00;;;3.30;99.90;;;;;;5105650;28;20023;-85
2021/11/25 04:36:40;;;;;;;23.43;18.17;;;3.40;99.90;;;;;;5111094;28;20092;-85
2021/11/25 04:39:08;;;;;;;24.10;18.03;;;3.50;99.90;;;;;;5129038;28;20016;-84
2021/11/25 04:41:34;;;;;;;22.33;17.23;;;3.50;99.90;;;;;;5130286;28;20088;-84
2021/11/25 04:44:00;;;;;;;24.37;17.87;;;3.50;99.90;;;;;;5130473;28;20044;-84
2021/11/25 04:46:28;;;;;;;24.17;17.77;;;3.50;99.90;;;;;;5135080;28;20058;-84
2021/11/25 04:48:53;;;;;;;24.57;17.80;;;3.60;99.90;;;;;;5128036;28;20027;-80
2021/11/25 04:51:19;;;;;;;26.03;18.77;;;3.60;99.90;;;;;;5128366;28;20112;-86
2021/11/25 04:53:45;;;;;;;23.87;18.43;;;3.50;99.90;;;;;;5128034;28;20031;-85
2021/11/25 04:56:11;;;;;;;25.83;18.60;;;3.50;99.90;;;;;;5126817;28;20031;-84
2021/11/25 04:58:36;;;;;;;29.13;18.17;;;3.50;99.90;;;;;;5091037;28;20039;-85
2021/11/25 05:01:03;;;;;;;22.33;16.97;;;3.50;99.90;;;;;;5107885;28;20028;-84
2021/11/25 05:03:29;;;;;;;19.70;16.70;;;3.50;99.90;;;;;;5125536;28;20107;-84
2021/11/25 05:05:55;;;;;;;24.97;17.03;;;3.50;99.90;;;;;;5124395;28;20043;-82
2021/11/25 05:08:22;;;;;;;22.23;16.30;;;3.50;99.90;;;;;;5107192;28;20293;-83
2021/11/25 05:10:48;;;;;;;26.13;16.10;;;3.50;99.90;;;;;;5107133;28;20036;-83
2021/11/25 05:13:14;;;;;;;22.93;16.27;;;3.50;99.90;;;;;;5123511;28;20483;-84
2021/11/25 05:15:40;;;;;;;24.27;17.83;;;3.40;99.90;;;;;;5124462;28;20054;-85
2021/11/25 05:18:07;;;;;;;22.60;16.90;;;3.30;99.90;;;;;;5123675;28;20019;-84
2021/11/25 05:20:34;;;;;;;21.83;16.57;;;3.30;99.90;;;;;;5108945;28;20566;-84
2021/11/25 05:23:01;;;;;;;25.97;17.97;;;3.20;99.90;;;;;;5126997;28;20048;-81
2021/11/25 05:25:26;;;;;;;24.50;18.13;;;3.10;99.90;;;;;;5126437;28;20020;-85
2021/11/25 05:27:53;;;;;;;25.97;19.17;;;3.10;99.90;;;;;;5123555;28;20073;-84
2021/11/25 05:30:19;;;;;;;25.27;19.60;;;3.10;99.90;;;;;;5122958;28;20019;-83
2021/11/25 05:32:46;;;;;;;28.53;20.03;;;3.20;99.90;;;;;;5104583;28;20115;-84
2021/11/25 05:35:14;;;;;;;28.93;19.47;;;3.20;99.90;;;;;;5123118;28;20027;-84
2021/11/25 05:37:41;;;;;;;29.77;19.63;;;3.30;99.90;;;;;;5124712;28;20039;-83
2021/11/25 05:40:09;;;;;;;27.33;20.13;;;3.30;99.90;;;;;;5124140;28;20032;-83
2021/11/25 05:42:35;;;;;;;24.50;18.73;;;3.30;99.90;;;;;;5106399;28;20027;-85
2021/11/25 05:45:03;;;;;;;29.37;20.30;;;3.30;99.90;;;;;;5123307;28;20044;-82
2021/11/25 05:47:34;;;;;;;25.53;20.07;;;3.10;99.90;;;;;;5123052;28;20019;-86
2021/11/25 05:50:07;;;;;;;26.57;19.70;;;3.00;99.90;;;;;;5122654;28;20024;-84
2021/11/25 05:52:35;;;;;;;26.87;18.30;;;3.00;99.90;;;;;;5106776;28;20024;-85
2021/11/25 05:55:01;;;;;;;27.80;18.53;;;3.00;99.90;;;;;;5123713;28;20023;-82
2021/11/25 05:57:26;;;;;;;24.57;17.30;;;3.10;99.90;;;;;;5106865;28;20157;-83
2021/11/25 05:59:52;;;;;;;23.00;17.20;;;3.20;99.90;;;;;;5098899;28;20153;-83
2021/11/25 06:02:20;;;;;;;44.57;18.97;;;3.20;99.90;;;;;;5116418;28;20031;-84
2021/11/25 06:04:46;;;;;;;38.70;19.53;;;3.10;99.80;;;;;;5116503;28;20024;-82
2021/11/25 06:07:12;;;;;;;27.43;19.13;;;2.80;99.60;;;;;;5115218;28;20097;-83
2021/11/25 06:09:39;;;;;;;27.00;17.70;;;2.90;99.90;;;;;;5115763;28;20031;-82
2021/11/25 06:12:06;;;;;;;22.80;17.40;;;2.90;99.90;;;;;;5098742;28;20030;-81
2021/11/25 06:14:35;;;;;;;21.47;16.73;;;2.90;99.90;;;;;;5098666;28;20329;-82
2021/11/25 06:17:02;;;;;;;28.47;16.97;;;2.90;99.90;;;;;;5115340;28;20035;-82
2021/11/25 06:19:29;;;;;;;42.50;16.70;;;3.00;99.90;;;;;;5115912;28;20028;-82
2021/11/25 06:21:56;;;;;;;29.77;18.00;;;2.90;99.60;;;;;;5115033;28;20055;-83
2021/11/25 06:24:22;;;;;;;38.37;18.53;;;2.70;99.40;;;;;;5121525;28;20076;-82
2021/11/25 06:26:50;;;;;;;28.83;19.13;;;2.60;99.60;;;;;;5114974;28;20027;-82
2021/11/25 06:29:17;;;;;;;25.20;18.57;;;2.60;99.90;;;;;;5115209;28;20422;-84
2021/11/25 06:31:43;;;;;;;23.83;18.50;;;2.70;99.90;;;;;;5115780;28;20031;-86
2021/11/25 06:34:09;;;;;;;22.63;16.40;;;2.70;99.90;;;;;;5116042;28;20511;-84
2021/11/25 06:36:35;;;;;;;21.23;16.70;;;2.70;99.60;;;;;;5099169;28;20032;-85
2021/11/25 06:39:01;;;;;;;21.63;16.37;;;2.80;99.90;;;;;;5083742;28;20135;-85
2021/11/25 06:41:27;;;;;;;21.40;16.57;;;2.90;99.90;;;;;;5117131;28;20066;-85
2021/11/25 06:43:53;;;;;;;21.53;15.33;;;3.10;99.90;;;;;;5102980;28;20019;-85
2021/11/25 06:46:19;;;;;;;18.00;15.23;;;3.10;99.90;;;;;;5123779;28;20036;-86
2021/11/25 06:48:44;;;;;;;20.53;15.37;;;3.10;99.10;;;;;;5104333;28;20072;-86
2021/11/25 06:51:10;;;;;;;22.00;16.30;;;2.80;98.20;;;;;;5100389;28;20109;-80
2021/11/25 06:53:36;;;;;;;22.13;16.63;;;2.70;98.40;;;;;;5083224;28;20035;-86
2021/11/25 06:56:01;;;;;;;23.07;17.67;;;2.70;99.00;;;;;;5100203;28;20112;-85
2021/11/25 06:58:27;;;;;;;22.17;17.50;;;2.70;98.80;;;;;;5099412;28;20028;-86
2021/11/25 07:00:53;;;;;;;24.17;17.97;;;2.70;98.80;;;;;;5118869;28;20477;-85
2021/11/25 07:03:19;;;;;;;23.70;17.87;;;2.70;98.90;;;;;;5105250;28;20495;-85
2021/11/25 07:05:45;;;;;;;25.77;18.20;;;2.80;99.50;;;;;;5126574;28;20118;-87
2021/11/25 07:08:11;;;;;;;25.10;19.23;;;3.00;99.70;;;;;;5098984;28;20030;-80
2021/11/25 07:10:37;;;;;;;24.43;18.57;;;3.00;98.90;;;;;;5120413;28;20019;-85
2021/11/25 07:13:02;;;;;;;26.57;19.17;;;3.00;99.10;;;;;;5119182;28;20020;-85
2021/11/25 07:15:28;;;;;;;26.00;18.10;;;3.20;99.70;;;;;;5117313;28;20055;-82
2021/11/25 07:17:55;;;;;;;25.17;18.20;;;3.40;99.80;;;;;;5119235;28;20020;-81
2021/11/25 07:20:21;;;;;;;27.43;18.03;;;3.70;99.90;;;;;;5122803;28;20076;-86
2021/11/25 07:22:48;;;;;;;21.97;16.73;;;3.90;99.90;;;;;;5103433;28;20062;-86
2021/11/25 07:25:16;;;;;;;24.17;16.97;;;4.20;99.70;;;;;;5118151;28;20348;-80
2021/11/25 07:27:43;;;;;;;19.63;15.83;;;4.30;99.30;;;;;;5115943;28;20039;-85
2021/11/25 07:30:11;;;;;;;18.93;14.20;;;4.40;98.80;;;;;;5117157;28;20030;-86
2021/11/25 07:32:37;;;;;;;21.47;14.83;;;4.40;98.40;;;;;;5116681;28;20019;-83
2021/11/25 07:35:05;;;;;;;18.17;14.87;;;4.40;97.80;;;;;;5118909;28;20464;-85
2021/11/25 07:37:31;;;;;;;17.70;14.13;;;4.40;97.70;;;;;;5114293;28;20055;-84
2021/11/25 07:39:56;;;;;;;17.73;14.90;;;4.50;97.70;;;;;;5097777;28;20401;-82
2021/11/25 07:42:22;;;;;;;15.70;13.73;;;4.60;97.90;;;;;;5113759;28;20036;-79
2021/11/25 07:44:48;;;;;;;17.70;14.17;;;4.60;97.50;;;;;;5114132;28;20066;-83
2021/11/25 07:47:16;;;;;;;17.27;14.00;;;4.80;97.90;;;;;;5118398;28;20035;-82
2021/11/25 07:49:42;;;;;;;20.13;14.40;;;5.00;97.50;;;;;;5099835;28;20059;-80
2021/11/25 07:52:07;;;;;;;19.33;15.80;;;5.10;96.80;;;;;;5109091;28;20024;-83
2021/11/25 07:54:34;;;;;;;20.67;16.17;;;5.00;95.90;;;;;;5135156;28;20027;-80
2021/11/25 07:57:00;;;;;;;22.63;16.07;;;4.70;94.90;;;;;;5135334;28;20032;-81
2021/11/25 07:59:28;;;;;;;23.13;16.70;;;4.50;95.10;;;;;;5121425;28;20024;-83
2021/11/25 08:01:55;;;;;;;26.23;18.30;;;4.40;95.60;;;;;;5119532;28;20043;-82
2021/11/25 08:04:21;;;;;;;24.17;18.97;;;4.40;96.30;;;;;;5117473;28;20471;-83
2021/11/25 08:06:47;;;;;;;27.53;19.50;;;4.30;95.80;;;;;;5097869;28;20114;-82
2021/11/25 08:09:13;;;;;;;31.27;20.83;;;4.20;95.60;;;;;;5117556;28;20026;-82
2021/11/25 08:11:38;;;;;;;31.77;21.67;;;4.10;95.70;;;;;;5116978;28;20028;-84
2021/11/25 08:14:04;;;;;;;32.23;21.87;;;4.00;95.70;;;;;;5099373;28;20497;-84
2021/11/25 08:16:29;;;;;;;36.77;23.77;;;3.80;95.30;;;;;;5100320;28;20111;-83
2021/11/25 08:18:55;;;;;;;35.13;24.30;;;3.60;95.30;;;;;;5104188;28;20028;-81
2021/11/25 08:21:22;;;;;;;40.97;27.30;;;3.50;96.00;;;;;;5091016;28;20050;-79
2021/11/25 08:23:48;;;;;;;41.70;26.40;;;3.60;96.70;;;;;;5126259;27;20187;-85
2021/11/25 08:26:14;;;;;;;48.30;30.23;;;3.70;96.50;;;;;;5122171;28;20118;-84
2021/11/25 08:28:41;;;;;;;51.67;31.10;;;3.70;96.00;;;;;;5122185;28;20127;-85
2021/11/25 08:31:07;;;;;;;47.60;31.37;;;3.90;97.00;;;;;;5088797;28;20031;-84
2021/11/25 08:33:33;;;;;;;44.20;29.30;;;4.30;97.50;;;;;;5121269;28;20020;-85
2021/11/25 08:36:00;;;;;;;43.37;28.87;;;4.40;96.90;;;;;;5122496;28;20108;-80
2021/11/25 08:38:28;;;;;;;41.13;28.07;;;4.50;96.70;;;;;;5104107;28;20375;-85
2021/11/25 08:40:55;;;;;;;42.80;29.33;;;4.60;96.50;;;;;;5088148;28;20020;-85
2021/11/25 08:43:21;;;;;;;41.10;28.53;;;4.60;96.50;;;;;;5105200;28;20023;-82
2021/11/25 08:45:48;;;;;;;45.77;29.57;;;4.70;96.70;;;;;;5107706;28;20066;-86
2021/11/25 08:48:13;;;;;;;43.63;30.07;;;4.80;96.40;;;;;;5129300;28;20020;-84
2021/11/25 08:50:41;;;;;;;45.07;31.47;;;4.80;96.10;;;;;;5132865;28;20432;-82
2021/11/25 08:53:07;;;;;;;45.97;31.70;;;4.80;96.20;;;;;;5099264;28;20027;-86
2021/11/25 08:55:35;;;;;;;46.77;32.57;;;4.90;96.70;;;;;;5125879;27;20475;-84
2021/11/25 08:58:02;;;;;;;42.47;29.93;;;5.10;96.80;;;;;;5107342;28;20028;-84
2021/11/25 09:00:28;;;;;;;43.53;31.43;;;5.10;96.50;;;;;;5122411;28;20028;-84
2021/11/25 09:02:54;;;;;;;45.87;31.37;;;5.30;96.80;;;;;;5121825;28;20034;-85
2021/11/25 09:05:19;;;;;;;39.57;28.57;;;5.40;96.60;;;;;;5103993;28;20448;-85
2021/11/25 09:07:45;;;;;;;40.93;29.77;;;5.40;95.80;;;;;;5121803;28;20127;-84
2021/11/25 09:10:12;;;;;;;46.70;32.27;;;5.40;95.70;;;;;;5122717;28;20383;-85
2021/11/25 09:12:37;;;;;;;47.40;33.33;;;5.40;96.10;;;;;;5120566;28;20027;-86
2021/11/25 09:15:04;;;;;;;50.73;33.80;;;5.50;96.10;;;;;;5120657;28;20467;-85
2021/11/25 09:17:30;;;;;;;52.20;35.40;;;5.50;95.80;;;;;;5120108;28;20103;-85
2021/11/25 09:19:55;;;;;;;56.67;36.93;;;5.60;96.20;;;;;;5103963;28;20027;-84
2021/11/25 09:22:21;;;;;;;58.97;38.77;;;5.80;96.40;;;;;;5127662;28;20058;-87
2021/11/25 09:24:47;;;;;;;59.93;39.07;;;5.80;96.20;;;;;;5131283;28;20035;-86
2021/11/25 09:27:12;;;;;;;50.97;36.27;;;5.80;96.50;;;;;;5131377;28;20027;-86
2021/11/25 09:29:38;;;;;;;59.87;40.73;;;5.90;96.20;;;;;;5113039;28;20481;-86
2021/11/25 09:32:06;;;;;;;56.90;38.93;;;5.90;96.40;;;;;;5110518;28;20076;-82
2021/11/25 09:34:31;;;;;;;57.10;39.23;;;6.00;96.40;;;;;;5094871;28;20437;-87
2021/11/25 09:36:57;;;;;;;50.23;36.87;;;6.00;96.40;;;;;;5094674;28;20039;-86
2021/11/25 09:39:25;;;;;;;53.43;37.90;;;6.00;96.10;;;;;;5128902;28;20031;-86
2021/11/25 09:41:55;;;;;;;52.10;37.07;;;6.00;96.30;;;;;;5111893;28;20066;-85
2021/11/25 09:44:23;;;;;;;55.33;38.63;;;6.00;96.00;;;;;;5128390;28;20045;-85
2021/11/25 09:46:53;;;;;;;58.60;39.63;;;6.00;96.10;;;;;;5128018;28;20031;-84
2021/11/25 09:49:21;;;;;;;57.60;40.33;;;6.10;96.40;;;;;;5127879;28;20341;-85
2021/11/25 09:51:48;;;;;;;51.13;35.50;;;6.20;96.30;;;;;;5127681;28;20028;-84
2021/11/25 09:54:14;;;;;;;48.13;33.80;;;6.30;96.10;;;;;;5127593;28;20023;-86
2021/11/25 09:56:39;;;;;;;44.60;32.93;;;6.30;95.70;;;;;;5128606;28;20032;-85
2021/11/25 09:59:05;;;;;;;51.93;35.53;;;6.20;95.30;;;;;;5129227;28;20047;-86
2021/11/25 10:01:33;;;;;;;49.03;34.50;;;6.20;95.60;;;;;;5130230;28;20421;-82
2021/11/25 10:03:59;;;;;;;48.07;33.83;;;6.40;95.90;;;;;;5129722;28;20033;-87
2021/11/25 10:06:29;;;;;;;46.00;33.83;;;6.40;95.50;;;;;;5129979;28;20059;-83
2021/11/25 10:08:56;;;;;;;42.87;31.63;;;6.50;95.40;;;;;;5129974;28;20034;-86
2021/11/25 10:11:42;;;;;;;39.20;30.20;;;6.50;94.60;;;;;;5128469;27;20055;-83
2021/11/25 10:14:12;;;;;;;42.53;31.47;;;6.40;94.40;;;;;;5127282;28;20081;-84
2021/11/25 10:16:42;;;;;;;47.73;32.87;;;6.30;94.30;;;;;;5129714;28;20040;-85
2021/11/25 10:19:17;;;;;;;48.30;33.90;;;6.30;94.60;;;;;;5128442;28;20028;-83
2021/11/25 10:21:52;;;;;;;43.37;33.37;;;6.40;95.00;;;;;;5128828;28;20091;-83
2021/11/25 10:24:33;;;;;;;45.33;34.00;;;6.60;95.20;;;;;;5128917;28;20075;-85
2021/11/25 10:27:26;;;;;;;47.03;33.30;;;6.70;95.20;;;;;;5130457;28;20024;-85
2021/11/25 10:30:19;;;;;;;45.33;31.87;;;6.80;94.80;;;;;;5124818;28;20024;-85
2021/11/25 10:32:58;;;;;;;46.53;31.67;;;6.70;94.10;;;;;;5128093;28;20032;-86
2021/11/25 10:35:27;;;;;;;41.10;30.20;;;6.60;94.00;;;;;;5130173;28;20028;-84
2021/11/25 10:38:45;;;;;;;48.03;31.93;;;6.30;93.30;;;;;;5115460;28;20035;-87
2021/11/25 10:40:39;;;;;;;45.27;32.20;;;6.20;94.40;;;;;;5102994;28;20088;-86
2021/11/25 10:43:29;;;;;;;42.00;30.47;;;6.30;95.20;;;;;;5121831;28;20036;-81
2021/11/25 10:45:54;;;;;;;45.37;31.20;;;6.30;94.80;;;;;;5115828;28;20023;-86
2021/11/25 10:48:29;;;;;;;43.83;30.80;;;6.40;95.30;;;;;;5117632;28;20027;-86
2021/11/25 10:50:55;;;;;;;42.60;30.80;;;6.50;95.50;;;;;;5115765;28;20015;-85
2021/11/25 10:53:21;;;;;;;44.07;30.87;;;6.60;95.40;;;;;;5116977;28;20206;-83
2021/11/25 10:55:47;;;;;;;39.63;29.00;;;6.60;95.00;;;;;;5099715;28;20077;-83
2021/11/25 10:58:13;;;;;;;41.80;29.63;;;6.60;95.40;;;;;;5115598;28;20027;-84
2021/11/25 11:00:41;;;;;;;41.73;29.80;;;6.70;95.30;;;;;;5116025;28;20027;-84
2021/11/25 11:03:11;;;;;;;37.60;28.20;;;6.80;95.30;;;;;;5117193;28;20023;-81
2021/11/25 11:05:49;;;;;;;41.30;28.93;;;6.80;95.30;;;;;;5117349;28;20038;-78
2021/11/25 11:08:16;;;;;;;36.37;27.57;;;6.90;95.10;;;;;;5116234;28;20020;-84
2021/11/25 11:10:52;;;;;;;42.13;28.87;;;6.90;95.00;;;;;;5117224;28;20035;-83
2021/11/25 11:16:11;;;;;;;36.33;28.67;;;6.80;94.60;;;;;;5119312;28;20039;-85
2021/11/25 11:18:55;;;;;;;37.87;27.87;;;6.80;94.00;;;;;;5119127;28;20024;-85
2021/11/25 11:21:43;;;;;;;41.77;29.47;;;6.70;94.50;;;;;;5120293;28;20019;-85
2021/11/25 11:24:19;;;;;;;38.70;29.97;;;6.70;94.30;;;;;;5120342;28;20380;-84
2021/11/25 11:26:56;;;;;;;42.63;30.27;;;6.50;94.60;;;;;;5118559;28;20088;-82
2021/11/25 11:29:24;;;;;;;38.77;29.77;;;6.60;94.80;;;;;;5116058;28;20020;-83
2021/11/25 11:31:52;;;;;;;38.70;30.10;;;6.50;95.00;;;;;;5116792;28;20019;-85
2021/11/25 11:34:19;;;;;;;40.80;30.47;;;6.50;95.40;;;;;;5101989;28;20081;-82
2021/11/25 11:36:52;;;;;;;41.27;30.93;;;6.50;95.60;;;;;;5086240;28;20042;-84
2021/11/25 11:39:20;;;;;;;40.43;30.17;;;6.60;95.80;;;;;;5122094;28;20081;-84
2021/11/25 11:41:48;;;;;;;42.20;31.23;;;6.70;95.60;;;;;;5130168;28;20023;-83
2021/11/25 11:44:19;;;;;;;41.13;31.67;;;6.70;95.30;;;;;;5129244;28;20139;-82
2021/11/25 11:46:46;;;;;;;38.80;29.90;;;6.80;95.90;;;;;;5127664;28;20031;-82
2021/11/25 11:49:12;;;;;;;38.13;29.00;;;6.80;95.80;;;;;;5127865;28;20051;-83
2021/11/25 11:51:39;;;;;;;40.30;29.87;;;6.90;95.50;;;;;;5128939;28;20100;-83
2021/11/25 11:54:19;;;;;;;41.20;32.47;;;6.80;95.20;;;;;;5127476;28;20023;-84
2021/11/25 11:56:46;;;;;;;38.67;30.80;;;6.90;95.90;;;;;;5128503;28;20038;-81
2021/11/25 11:59:12;;;;;;;43.33;30.50;;;7.00;95.90;;;;;;5107631;28;20032;-82
2021/11/25 12:01:40;;;;;;;41.00;31.37;;;7.10;95.70;;;;;;5123869;28;20023;-82
2021/11/25 12:04:09;;;;;;;42.00;32.40;;;7.10;95.70;;;;;;5108699;28;20104;-83
2021/11/25 12:06:41;;;;;;;37.03;29.90;;;7.10;95.80;;;;;;5123234;28;20027;-82
2021/11/25 12:09:21;;;;;;;40.85;30.85;;;7.10;95.80;;;;;;5122059;28;20024;-82
2021/11/25 12:11:56;;;;;;;42.90;30.53;;;7.10;96.10;;;;;;5122120;28;20072;-82
2021/11/25 12:14:27;;;;;;;39.57;30.60;;;7.10;95.90;;;;;;5123428;28;20020;-82
2021/11/25 12:17:00;;;;;;;44.70;33.27;;;7.10;95.90;;;;;;5120216;28;20074;-82
2021/11/25 12:19:34;;;;;;;39.80;31.67;;;7.10;96.00;;;;;;5117985;28;20052;-80
2021/11/25 12:22:14;;;;;;;46.00;33.67;;;7.00;95.70;;;;;;5119176;28;20106;-80
2021/11/25 12:25:00;;;;;;;44.67;34.30;;;7.00;95.60;;;;;;5119623;28;20055;-81
2021/11/25 12:27:28;;;;;;;47.50;35.30;;;6.80;96.00;;;;;;5122404;28;20041;-81
2021/11/25 12:32:58;;;;;;;47.47;36.43;;;6.90;96.40;;;;;;5119122;28;20050;-80
2021/11/25 12:35:44;;;;;;;47.30;35.53;;;6.90;96.20;;;;;;5112668;28;20024;-80
2021/11/25 12:38:16;;;;;;;50.47;38.73;;;6.90;96.30;;;;;;5115933;28;20032;-79
2021/11/25 12:40:55;;;;;;;53.58;39.17;;;7.00;96.90;;;;;;5113381;28;20509;-79
2021/11/25 12:43:27;;;;;;;54.50;38.63;;;7.00;96.70;;;;;;5114584;28;20026;-80
2021/11/25 12:45:58;;;;;;;59.08;42.45;;;7.10;96.80;;;;;;5113417;28;20070;-79
2021/11/25 12:48:39;;;;;;;56.93;42.00;;;7.30;97.10;;;;;;5114159;28;20023;-80
2021/11/25 12:51:11;;;;;;;49.07;36.83;;;7.40;97.00;;;;;;5112561;28;20023;-81